Time;durP1;ratioP1;P1;durP2;ratioP2;P2;SDS_P1;SDS_P2;PMS_P1;PMS_P2;Temp;Humidity;BMP_temperature;BMP_pressure;BME280_temperature;BME280_humidity;BME280_pressure;Samples;Min_cycle;Max_cycle;Signal;HPM_P1;HPM_P2
2023/04/22 00:01:29;;;;;;;;;;;;;;;-141.59;100.00;61776.25;5108099;28;19935;-88
2023/04/22 00:03:56;;;;;;;;;;;;;;;-141.59;100.00;61776.25;5123192;27;19979;-89
2023/04/22 00:06:24;;;;;;;;;;;;;;;-141.59;100.00;61776.25;5102718;28;19930;-88
2023/04/22 00:08:50;;;;;;;;;;;;;;;-141.59;100.00;61776.25;5123971;27;19946;-87
2023/04/22 00:11:18;;;;;;;;;;;;;;;-141.59;100.00;61776.25;5110661;28;19927;-88
2023/04/22 00:13:45;;;;;;;;;;;;;;;-141.59;100.00;61776.25;5111624;27;19928;-88
2023/04/22 00:16:12;;;;;;;;;;;;;;;-141.59;100.00;61776.25;5104931;28;20041;-88
2023/04/22 00:18:38;;;;;;;;;;;;;;;-141.59;100.00;61776.25;5106735;28;19932;-89
2023/04/22 00:21:06;;;;;;;;;;;;;;;-141.59;100.00;61776.25;5105945;28;19924;-87
2023/04/22 00:23:34;;;;;;;;;;;;;;;-141.59;100.00;61776.25;5109062;28;19983;-89
2023/04/22 00:26:01;;;;;;;;;;;;;;;-141.59;100.00;61776.25;5117884;27;19930;-89
2023/04/22 00:28:28;;;;;;;;;;;;;;;-141.59;100.00;61776.25;5107865;28;19928;-89
2023/04/22 00:30:56;;;;;;;;;;;;;;;-141.59;100.00;61776.25;5108477;28;19924;-87
2023/04/22 00:33:23;;;;;;;;;;;;;;;-141.59;100.00;61776.25;5107294;28;19977;-88
2023/04/22 00:35:50;;;;;;;;;;;;;;;-141.59;100.00;61776.25;5110043;28;19971;-89
2023/04/22 00:38:17;;;;;;;;;;;;;;;-141.59;100.00;61776.25;5104274;28;19923;-90
2023/04/22 00:40:45;;;;;;;;;;;;;;;-141.59;100.00;61776.25;5105138;28;19924;-89
2023/04/22 00:43:13;;;;;;;;;;;;;;;-141.59;100.00;61776.25;5106968;28;19932;-90
2023/04/22 00:45:39;;;;;;;;;;;;;;;-141.59;100.00;61776.25;5094260;28;19924;-89
2023/04/22 00:48:07;;;;;;;;;;;;;;;-141.59;100.00;61776.25;5107801;28;19930;-90
2023/04/22 00:50:34;;;;;;;;;;;;;;;-141.59;100.00;61776.25;5099061;28;19924;-90
2023/04/22 00:53:01;;;;;;;;;;;;;;;-141.59;100.00;61776.25;5108825;28;19959;-89
2023/04/22 00:55:28;;;;;;;;;;;;;;;-141.59;100.00;61776.25;5109545;28;19924;-89
2023/04/22 00:57:58;;;;;;;;;;;;;;;-141.59;100.00;61776.25;5108849;28;19969;-87
2023/04/22 01:00:26;;;;;;;;;;;;;;;-141.59;100.00;61776.25;5097609;28;19935;-89
2023/04/22 01:02:53;;;;;;;;;;;;;;;-141.59;100.00;61776.25;5097672;28;19932;-89
2023/04/22 01:05:20;;;;;;;;;;;;;;;-141.59;100.00;61776.25;5092952;28;19967;-89
2023/04/22 01:07:47;;;;;;;;;;;;;;;-141.59;100.00;61776.25;5101955;28;20031;-91
2023/04/22 01:10:13;;;;;;;;;;;;;;;-141.59;100.00;61776.25;5102991;28;19947;-90
2023/04/22 01:12:40;;;;;;;;;;;;;;;-141.59;100.00;61776.25;5100361;28;20011;-90
2023/04/22 01:15:09;;;;;;;;;;;;;;;-141.59;100.00;61776.25;5110270;28;19931;-89
2023/04/22 01:17:36;;;;;;;;;;;;;;;-141.59;100.00;61776.25;5124630;28;19924;-89
2023/04/22 01:20:04;;;;;;;;;;;;;;;-141.59;100.00;61776.25;5108835;28;19924;-88
2023/04/22 01:22:36;;;;;;;;;;;;;;;-141.59;100.00;61776.25;5110583;28;19927;-89
2023/04/22 01:25:05;;;;;;;;;;;;;;;-141.59;100.00;61776.25;5103933;28;19924;-90
2023/04/22 01:27:32;;;;;;;;;;;;;;;-141.59;100.00;61776.25;5104612;28;19923;-88
2023/04/22 01:29:59;;;;;;;;;;;;;;;-141.59;100.00;61776.25;5110020;28;20016;-89
2023/04/22 01:32:27;;;;;;;;;;;;;;;-141.59;100.00;61776.25;5113800;28;19931;-89
2023/04/22 01:34:54;;;;;;;;;;;;;;;-141.59;100.00;61776.25;5114208;28;19924;-89
2023/04/22 01:37:21;;;;;;;;;;;;;;;-141.59;100.00;61776.25;5103229;28;19924;-90
2023/04/22 01:39:48;;;;;;;;;;;;;;;-141.59;100.00;61776.25;5113860;28;19935;-89
2023/04/22 01:42:16;;;;;;;;;;;;;;;-141.59;100.00;61776.25;5111893;28;19973;-89
2023/04/22 01:44:43;;;;;;;;;;;;;;;-141.59;100.00;61776.25;5109798;28;20085;-88
2023/04/22 01:47:09;;;;;;;;;;;;;;;-141.59;100.00;61776.25;5111772;28;19931;-91
2023/04/22 01:49:36;;;;;;;;;;;;;;;-141.59;100.00;61776.25;5112921;28;19928;-90
2023/04/22 01:52:03;;;;;;;;;;;;;;;-141.59;100.00;61776.25;5104673;28;19924;-90
2023/04/22 01:54:30;;;;;;;;;;;;;;;-141.59;100.00;61776.25;5102076;28;19978;-90
2023/04/22 01:56:57;;;;;;;;;;;;;;;-141.59;100.00;61776.25;5114413;28;19923;-90
2023/04/22 01:59:25;;;;;;;;;;;;;;;-141.59;100.00;61776.25;5108224;28;19981;-90
2023/04/22 02:01:52;;;;;;;;;;;;;;;-141.59;100.00;61776.25;5102116;28;19930;-90
2023/04/22 02:04:19;;;;;;;;;;;;;;;-141.59;100.00;61776.25;5109731;28;19923;-91
2023/04/22 02:06:47;;;;;;;;;;;;;;;-141.59;100.00;61776.25;5124962;27;19927;-88
2023/04/22 02:09:14;;;;;;;;;;;;;;;-141.59;100.00;61776.25;5109285;27;19930;-90
2023/04/22 02:11:41;;;;;;;;;;;;;;;-141.59;100.00;61776.25;5113725;28;19934;-90
2023/04/22 02:14:07;;;;;;;;;;;;;;;-141.59;100.00;61776.25;5112139;28;19924;-90
2023/04/22 02:16:36;;;;;;;;;;;;;;;-141.59;100.00;61776.25;5112440;28;19923;-88
2023/04/22 02:19:03;;;;;;;;;;;;;;;-141.59;100.00;61776.25;5106169;28;20004;-89
2023/04/22 02:21:32;;;;;;;;;;;;;;;-141.59;100.00;61776.25;5109092;28;19967;-89
2023/04/22 02:23:58;;;;;;;;;;;;;;;-141.59;100.00;61776.25;5109941;28;19924;-91
2023/04/22 02:26:29;;;;;;;;;;;;;;;-141.59;100.00;61776.25;5110579;28;19923;-90
2023/04/22 02:28:56;;;;;;;;;;;;;;;-141.59;100.00;61776.25;5111388;28;19971;-89
2023/04/22 02:31:23;;;;;;;;;;;;;;;-141.59;100.00;61776.25;5110199;28;19923;-91
2023/04/22 02:33:51;;;;;;;;;;;;;;;-141.59;100.00;61776.25;5104177;28;19938;-91
2023/04/22 02:36:18;;;;;;;;;;;;;;;-141.59;100.00;61776.25;5112975;28;19928;-88
2023/04/22 02:38:45;;;;;;;;;;;;;;;-141.59;100.00;61776.25;5113964;28;19953;-92
2023/04/22 02:41:14;;;;;;;;;;;;;;;-141.59;100.00;61776.25;5109958;28;19923;-90
2023/04/22 02:43:44;;;;;;;;;;;;;;;-141.59;100.00;61776.25;5111367;28;19928;-89
2023/04/22 02:46:12;;;;;;;;;;;;;;;-141.59;100.00;61776.25;5109332;28;19931;-90
2023/04/22 02:48:42;;;;;;;;;;;;;;;-141.59;100.00;61776.25;5106517;28;19931;-90
2023/04/22 02:51:11;;;;;;;;;;;;;;;-141.59;100.00;61776.25;5100625;28;19926;-89
2023/04/22 02:53:38;;;;;;;;;;;;;;;-141.59;100.00;61776.25;5105927;27;19923;-92
2023/04/22 02:56:05;;;;;;;;;;;;;;;-141.59;100.00;61776.25;5102826;28;19978;-92
2023/04/22 02:58:32;;;;;;;;;;;;;;;-141.59;100.00;61776.25;5110968;28;19973;-90
2023/04/22 03:00:59;;;;;;;;;;;;;;;-141.59;100.00;61776.25;5106200;28;19997;-90
2023/04/22 03:03:25;;;;;;;;;;;;;;;-141.59;100.00;61776.25;5110694;28;19923;-90
2023/04/22 03:05:52;;;;;;;;;;;;;;;-141.59;100.00;61776.25;5114440;28;19928;-91
2023/04/22 03:08:20;;;;;;;;;;;;;;;-141.59;100.00;61776.25;5105709;28;19923;-90
2023/04/22 03:10:48;;;;;;;;;;;;;;;-141.59;100.00;61776.25;5107990;28;19924;-90
2023/04/22 03:13:14;;;;;;;;;;;;;;;-141.59;100.00;61776.25;5110900;28;19930;-89
2023/04/22 03:15:42;;;;;;;;;;;;;;;-141.59;100.00;61776.25;5121761;27;19938;-90
2023/04/22 03:18:08;;;;;;;;;;;;;;;-141.59;100.00;61776.25;5128320;27;19927;-90
2023/04/22 03:20:35;;;;;;;;;;;;;;;-141.59;100.00;61776.25;5109794;28;19951;-91
2023/04/22 03:23:03;;;;;;;;;;;;;;;-141.59;100.00;61776.25;5103804;28;19932;-89
2023/04/22 03:25:31;;;;;;;;;;;;;;;-141.59;100.00;61776.25;5104011;28;19924;-91
2023/04/22 03:27:58;;;;;;;;;;;;;;;-141.59;100.00;61776.25;5128352;27;19963;-89
2023/04/22 03:30:25;;;;;;;;;;;;;;;-141.59;100.00;61776.25;5104578;28;19931;-89
2023/04/22 03:32:53;;;;;;;;;;;;;;;-141.59;100.00;61776.25;5112011;28;19928;-89
2023/04/22 03:35:23;;;;;;;;;;;;;;;-141.59;100.00;61776.25;5105284;28;19924;-90
2023/04/22 03:37:52;;;;;;;;;;;;;;;-141.59;100.00;61776.25;5102903;28;19927;-90
2023/04/22 03:40:24;;;;;;;;;;;;;;;-141.59;100.00;61776.25;5104746;28;19923;-91
2023/04/22 03:42:52;;;;;;;;;;;;;;;-141.59;100.00;61776.25;5110010;28;19949;-90
2023/04/22 03:45:20;;;;;;;;;;;;;;;-141.59;100.00;61776.25;5100336;28;19924;-90
2023/04/22 03:47:55;;;;;;;;;;;;;;;-141.59;100.00;61776.25;5113003;28;19924;-89
2023/04/22 03:50:27;;;;;;;;;;;;;;;-141.59;100.00;61776.25;5101455;28;20034;-88
2023/04/22 03:52:56;;;;;;;;;;;;;;;-141.59;100.00;61776.25;5102827;28;19924;-90
2023/04/22 03:55:23;;;;;;;;;;;;;;;-141.59;100.00;61776.25;5107986;28;19931;-88
2023/04/22 03:57:53;;;;;;;;;;;;;;;-141.59;100.00;61776.25;5098758;28;19991;-91
2023/04/22 04:00:20;;;;;;;;;;;;;;;-141.59;100.00;61776.25;5104018;28;20022;-91
2023/04/22 04:02:55;;;;;;;;;;;;;;;-141.59;100.00;61776.25;5110243;28;20038;-91
2023/04/22 04:05:26;;;;;;;;;;;;;;;-141.59;100.00;61776.25;5104730;28;19972;-90
2023/04/22 04:07:53;;;;;;;;;;;;;;;-141.59;100.00;61776.25;5103345;28;19923;-91
2023/04/22 04:10:19;;;;;;;;;;;;;;;-141.59;100.00;61776.25;5109361;28;19924;-91
2023/04/22 04:12:47;;;;;;;;;;;;;;;-141.59;100.00;61776.25;5117935;27;20011;-90
2023/04/22 04:15:18;;;;;;;;;;;;;;;-141.59;100.00;61776.25;5108621;28;19923;-90
2023/04/22 04:17:46;;;;;;;;;;;;;;;-141.59;100.00;61776.25;5108301;28;19981;-90
2023/04/22 04:20:14;;;;;;;;;;;;;;;-141.59;100.00;61776.25;5107893;28;19924;-91
2023/04/22 04:22:41;;;;;;;;;;;;;;;-141.59;100.00;61776.25;5107106;28;19939;-91
2023/04/22 04:25:09;;;;;;;;;;;;;;;-141.59;100.00;61776.25;5118745;27;19971;-89
2023/04/22 04:27:40;;;;;;;;;;;;;;;-141.59;100.00;61776.25;5110929;28;19924;-89
2023/04/22 04:30:11;;;;;;;;;;;;;;;-141.59;100.00;61776.25;5107373;28;19969;-91
2023/04/22 04:32:44;;;;;;;;;;;;;;;-141.59;100.00;61776.25;5109421;28;19951;-91
2023/04/22 04:35:13;;;;;;;;;;;;;;;-141.59;100.00;61776.25;5110915;28;19924;-92
2023/04/22 04:37:43;;;;;;;;;;;;;;;-141.59;100.00;61776.25;5106062;28;19966;-91
2023/04/22 04:40:11;;;;;;;;;;;;;;;-141.59;100.00;61776.25;5120891;27;19923;-93
2023/04/22 04:43:01;;;;;;;;;;;;;;;-141.59;100.00;61776.25;5107609;28;19994;-91
2023/04/22 04:45:35;;;;;;;;;;;;;;;-141.59;100.00;61776.25;5113396;28;19923;-90
2023/04/22 04:48:03;;;;;;;;;;;;;;;-141.59;100.00;61776.25;5104392;28;19940;-91
2023/04/22 04:50:35;;;;;;;;;;;;;;;-141.59;100.00;61776.25;5105111;28;20006;-91
2023/04/22 04:53:03;;;;;;;;;;;;;;;-141.59;100.00;61776.25;5109951;28;19925;-91
2023/04/22 04:55:36;;;;;;;;;;;;;;;-141.59;100.00;61776.25;5108258;28;19931;-90
2023/04/22 04:58:07;;;;;;;;;;;;;;;-141.59;100.00;61776.25;5109323;28;19931;-94
2023/04/22 05:00:34;;;;;;;;;;;;;;;-141.59;100.00;61776.25;5110529;28;19928;-91
2023/04/22 05:03:00;;;;;;;;;;;;;;;-141.59;100.00;61776.25;5110800;28;19924;-92
2023/04/22 05:05:29;;;;;;;;;;;;;;;-141.59;100.00;61776.25;5106530;28;19976;-89
2023/04/22 05:07:57;;;;;;;;;;;;;;;-141.59;100.00;61776.25;5096130;28;19946;-92
2023/04/22 05:10:25;;;;;;;;;;;;;;;-141.59;100.00;61776.25;5109747;28;19924;-90
2023/04/22 05:12:52;;;;;;;;;;;;;;;-141.59;100.00;61776.25;5125053;28;19974;-91
2023/04/22 05:15:23;;;;;;;;;;;;;;;-141.59;100.00;61776.25;5102639;28;19924;-92
2023/04/22 05:17:49;;;;;;;;;;;;;;;-141.59;100.00;61776.25;5106429;28;19923;-90
2023/04/22 05:20:16;;;;;;;;;;;;;;;-141.59;100.00;61776.25;5106948;28;19981;-92
2023/04/22 05:22:44;;;;;;;;;;;;;;;-141.59;100.00;61776.25;5098648;28;19924;-91
2023/04/22 05:25:12;;;;;;;;;;;;;;;-141.59;100.00;61776.25;5106983;28;20519;-92
2023/04/22 05:27:44;;;;;;;;;;;;;;;-141.59;100.00;61776.25;5126312;28;19923;-92
2023/04/22 05:30:12;;;;;;;;;;;;;;;-141.59;100.00;61776.25;5101658;28;20062;-91
2023/04/22 05:32:39;;;;;;;;;;;;;;;-141.59;100.00;61776.25;5112814;28;19924;-91
2023/04/22 05:35:07;;;;;;;;;;;;;;;-141.59;100.00;61776.25;5107542;28;19975;-90
2023/04/22 05:37:33;;;;;;;;;;;;;;;-141.59;100.00;61776.25;5123311;28;19928;-91
2023/04/22 05:40:02;;;;;;;;;;;;;;;-141.59;100.00;61776.25;5099773;28;20026;-91
2023/04/22 05:42:30;;;;;;;;;;;;;;;-141.59;100.00;61776.25;5111978;28;19932;-91
2023/04/22 05:44:57;;;;;;;;;;;;;;;-141.59;100.00;61776.25;5117191;27;19935;-88
2023/04/22 05:47:24;;;;;;;;;;;;;;;-141.59;100.00;61776.25;5108351;28;20019;-90
2023/04/22 05:49:53;;;;;;;;;;;;;;;-141.59;100.00;61776.25;5102027;28;19931;-89
2023/04/22 05:52:30;;;;;;;;;;;;;;;-141.59;100.00;61776.25;5115632;28;19980;-91
2023/04/22 05:55:10;;;;;;;;;;;;;;;-141.59;100.00;61776.25;5099711;28;19924;-89
2023/04/22 05:57:37;;;;;;;;;;;;;;;-141.59;100.00;61776.25;5105823;28;20038;-92
2023/04/22 06:00:09;;;;;;;;;;;;;;;-141.59;100.00;61776.25;5098559;28;19924;-91
2023/04/22 06:02:39;;;;;;;;;;;;;;;-141.59;100.00;61776.25;5107402;28;20014;-91
2023/04/22 06:05:07;;;;;;;;;;;;;;;-141.59;100.00;61776.25;5110153;28;19969;-92
2023/04/22 06:07:34;;;;;;;;;;;;;;;-141.59;100.00;61776.25;5105025;28;19963;-90
2023/04/22 06:10:01;;;;;;;;;;;;;;;-141.59;100.00;61776.25;5107316;28;19923;-91
2023/04/22 06:12:30;;;;;;;;;;;;;;;-141.59;100.00;61776.25;5106472;28;19935;-92
2023/04/22 06:14:56;;;;;;;;;;;;;;;-141.59;100.00;61776.25;5107039;28;20010;-87
2023/04/22 06:17:23;;;;;;;;;;;;;;;-141.59;100.00;61776.25;5106171;28;19925;-89
2023/04/22 06:19:51;;;;;;;;;;;;;;;-141.59;100.00;61776.25;5106918;28;19931;-90
2023/04/22 06:22:18;;;;;;;;;;;;;;;-141.59;100.00;61776.25;5126828;27;19931;-91
2023/04/22 06:24:46;;;;;;;;;;;;;;;-141.59;100.00;61776.25;5112125;28;19934;-91
2023/04/22 06:27:12;;;;;;;;;;;;;;;-141.59;100.00;61776.25;5105916;28;19927;-89
2023/04/22 06:29:41;;;;;;;;;;;;;;;-141.59;100.00;61776.25;5103258;28;19924;-91
2023/04/22 06:32:07;;;;;;;;;;;;;;;-141.59;100.00;61776.25;5109021;28;19928;-88
2023/04/22 06:34:34;;;;;;;;;;;;;;;-141.59;100.00;61776.25;5103222;28;19946;-91
2023/04/22 06:37:01;;;;;;;;;;;;;;;-141.59;100.00;61776.25;5102303;28;20000;-89
2023/04/22 06:39:29;;;;;;;;;;;;;;;-141.59;100.00;61776.25;5112181;28;20281;-91
2023/04/22 06:42:14;;;;;;;;;;;;;;;-141.59;100.00;61776.25;5105964;28;20019;-89
2023/04/22 06:45:02;;;;;;;;;;;;;;;-141.59;100.00;61776.25;5108653;28;19928;-91
2023/04/22 06:47:39;;;;;;;;;;;;;;;-141.59;100.00;61776.25;5107615;28;19924;-90
2023/04/22 06:50:13;;;;;;;;;;;;;;;-141.59;100.00;61776.25;5110148;28;19928;-90
2023/04/22 06:52:51;;;;;;;;;;;;;;;-141.59;100.00;61776.25;5105005;28;19933;-91
2023/04/22 06:55:18;;;;;;;;;;;;;;;-141.59;100.00;61776.25;5125972;27;19931;-94
2023/04/22 06:57:45;;;;;;;;;;;;;;;-141.59;100.00;61776.25;5101975;27;19963;-91
2023/04/22 07:00:14;;;;;;;;;;;;;;;-141.59;100.00;61776.25;5108787;27;19945;-91
2023/04/22 07:02:42;;;;;;;;;;;;;;;-141.59;100.00;61776.25;5108486;28;19924;-90
2023/04/22 07:05:09;;;;;;;;;;;;;;;-141.59;100.00;61776.25;5102455;28;20016;-90
2023/04/22 07:07:36;;;;;;;;;;;;;;;-141.59;100.00;61776.25;5102758;28;20018;-94
2023/04/22 07:10:03;;;;;;;;;;;;;;;-141.59;100.00;61776.25;5110731;28;20019;-91
2023/04/22 07:12:36;;;;;;;;;;;;;;;-141.59;100.00;61776.25;5105947;28;19924;-90
2023/04/22 07:15:03;;;;;;;;;;;;;;;-141.59;100.00;61776.25;5100149;28;19936;-89
2023/04/22 07:17:31;;;;;;;;;;;;;;;-141.59;100.00;61776.25;5105323;28;19939;-91
2023/04/22 07:19:58;;;;;;;;;;;;;;;-141.59;100.00;61776.25;5106463;28;19932;-91
2023/04/22 07:22:25;;;;;;;;;;;;;;;-141.59;100.00;61776.25;5119209;27;19924;-91
2023/04/22 07:24:51;;;;;;;;;;;;;;;-141.59;100.00;61776.25;5112993;28;19973;-91
2023/04/22 07:27:18;;;;;;;;;;;;;;;-141.59;100.00;61776.25;5112281;28;19924;-92
2023/04/22 07:29:45;;;;;;;;;;;;;;;-141.59;100.00;61776.25;5105464;28;19939;-90
2023/04/22 07:32:12;;;;;;;;;;;;;;;-141.59;100.00;61776.25;5100457;28;19924;-90
2023/04/22 07:34:40;;;;;;;;;;;;;;;-141.59;100.00;61776.25;5111788;28;19927;-90
2023/04/22 07:37:08;;;;;;;;;;;;;;;-141.59;100.00;61776.25;5108921;28;19928;-87
2023/04/22 07:39:35;;;;;;;;;;;;;;;-141.59;100.00;61776.25;5121889;27;19924;-90
2023/04/22 07:42:02;;;;;;;;;;;;;;;-141.59;100.00;61776.25;5108994;28;19947;-90
2023/04/22 07:44:30;;;;;;;;;;;;;;;-141.59;100.00;61776.25;5112745;28;19923;-90
2023/04/22 07:46:56;;;;;;;;;;;;;;;-141.59;100.00;61776.25;5107527;28;19923;-91
2023/04/22 07:49:23;;;;;;;;;;;;;;;-141.59;100.00;61776.25;5111882;28;20080;-91
2023/04/22 07:51:51;;;;;;;;;;;;;;;-141.59;100.00;61776.25;5111840;28;19928;-90
2023/04/22 07:54:18;;;;;;;;;;;;;;;-141.59;100.00;61776.25;5101560;28;19931;-92
2023/04/22 07:56:45;;;;;;;;;;;;;;;-141.59;100.00;61776.25;5104572;27;19969;-91
2023/04/22 07:59:12;;;;;;;;;;;;;;;-141.59;100.00;61776.25;5106848;28;19928;-90
2023/04/22 08:01:38;;;;;;;;;;;;;;;-141.59;100.00;61776.25;5102875;28;19931;-90
2023/04/22 08:04:06;;;;;;;;;;;;;;;-141.59;100.00;61776.25;5106268;28;19924;-90
2023/04/22 08:06:33;;;;;;;;;;;;;;;-141.59;100.00;61776.25;5111178;28;19916;-91
2023/04/22 08:09:01;;;;;;;;;;;;;;;-141.59;100.00;61776.25;5107410;28;19924;-90
2023/04/22 08:11:28;;;;;;;;;;;;;;;-141.59;100.00;61776.25;5107197;28;19939;-92
2023/04/22 08:13:54;;;;;;;;;;;;;;;-141.59;100.00;61776.25;5105481;28;19985;-90
2023/04/22 08:16:21;;;;;;;;;;;;;;;-141.59;100.00;61776.25;5095790;28;19928;-90
2023/04/22 08:18:48;;;;;;;;;;;;;;;-141.59;100.00;61776.25;5111532;28;19924;-91
2023/04/22 08:21:15;;;;;;;;;;;;;;;-141.59;100.00;61776.25;5111511;28;19928;-89
2023/04/22 08:23:41;;;;;;;;;;;;;;;-141.59;100.00;61776.25;5112189;28;19928;-91
2023/04/22 08:26:13;;;;;;;;;;;;;;;-141.59;100.00;61776.25;5111278;28;19932;-91
2023/04/22 08:28:40;;;;;;;;;;;;;;;-141.59;100.00;61776.25;5110380;28;19931;-91
2023/04/22 08:31:09;;;;;;;;;;;;;;;-141.59;100.00;61776.25;5109503;28;19931;-90
2023/04/22 08:33:36;;;;;;;;;;;;;;;-141.59;100.00;61776.25;5106751;28;19924;-91
2023/04/22 08:36:03;;;;;;;;;;;;;;;-141.59;100.00;61776.25;5103041;28;19930;-91
2023/04/22 08:38:29;;;;;;;;;;;;;;;-141.59;100.00;61776.25;5109282;28;19924;-91
2023/04/22 08:40:57;;;;;;;;;;;;;;;-141.59;100.00;61776.25;5107869;28;19924;-89
2023/04/22 08:43:26;;;;;;;;;;;;;;;-141.59;100.00;61776.25;5097814;28;20015;-91
2023/04/22 08:45:53;;;;;;;;;;;;;;;-141.59;100.00;61776.25;5111630;28;19924;-92
2023/04/22 08:48:21;;;;;;;;;;;;;;;-141.59;100.00;61776.25;5096259;28;19924;-89
2023/04/22 08:50:48;;;;;;;;;;;;;;;-141.59;100.00;61776.25;5125911;27;19923;-90
2023/04/22 08:53:15;;;;;;;;;;;;;;;-141.59;100.00;61776.25;5107859;28;19970;-90
2023/04/22 08:55:43;;;;;;;;;;;;;;;-141.59;100.00;61776.25;5101903;28;19923;-90
2023/04/22 08:58:11;;;;;;;;;;;;;;;-141.59;100.00;61776.25;5126171;27;19973;-90
2023/04/22 09:00:39;;;;;;;;;;;;;;;-141.59;100.00;61776.25;5109528;28;19947;-91
2023/04/22 09:03:07;;;;;;;;;;;;;;;-141.59;100.00;61776.25;5110907;28;19929;-89
2023/04/22 09:05:35;;;;;;;;;;;;;;;-141.59;100.00;61776.25;5108088;28;19935;-91
2023/04/22 09:08:02;;;;;;;;;;;;;;;-141.59;100.00;61776.25;5098114;28;19931;-90
2023/04/22 09:10:29;;;;;;;;;;;;;;;-141.59;100.00;61776.25;5105289;28;19924;-89
2023/04/22 09:12:58;;;;;;;;;;;;;;;-141.59;100.00;61776.25;5108117;28;19988;-88
2023/04/22 09:15:26;;;;;;;;;;;;;;;-141.59;100.00;61776.25;5110949;27;19931;-88
2023/04/22 09:17:57;;;;;;;;;;;;;;;-141.59;100.00;61776.25;5104105;28;19931;-89
2023/04/22 09:20:26;;;;;;;;;;;;;;;-141.59;100.00;61776.25;5101378;28;19959;-88
2023/04/22 09:22:53;;;;;;;;;;;;;;;-141.59;100.00;61776.25;5109310;28;19963;-88
2023/04/22 09:25:21;;;;;;;;;;;;;;;-141.59;100.00;61776.25;5105524;28;19924;-88
2023/04/22 09:27:51;;;;;;;;;;;;;;;-141.59;100.00;61776.25;5089154;28;19924;-89
2023/04/22 09:30:22;;;;;;;;;;;;;;;-141.59;100.00;61776.25;5104314;28;19927;-88
2023/04/22 09:32:55;;;;;;;;;;;;;;;-141.59;100.00;61776.25;5100425;28;19986;-89
2023/04/22 09:35:29;;;;;;;;;;;;;;;-141.59;100.00;61776.25;5107356;28;19982;-89
2023/04/22 09:37:56;;;;;;;;;;;;;;;-141.59;100.00;61776.25;5109437;28;19965;-88
2023/04/22 09:40:24;;;;;;;;;;;;;;;-141.59;100.00;61776.25;5104097;28;19924;-88
2023/04/22 09:42:51;;;;;;;;;;;;;;;-141.59;100.00;61776.25;5108087;28;19946;-87
2023/04/22 09:45:25;;;;;;;;;;;;;;;-141.59;100.00;61776.25;5113546;28;19931;-88
2023/04/22 09:47:52;;;;;;;;;;;;;;;-141.59;100.00;61776.25;5107149;28;19965;-88
2023/04/22 09:50:21;;;;;;;;;;;;;;;-141.59;100.00;61776.25;5102233;28;19935;-89
2023/04/22 09:52:54;;;;;;;;;;;;;;;-141.59;100.00;61776.25;5094519;28;19924;-88
2023/04/22 09:55:21;;;;;;;;;;;;;;;-141.59;100.00;61776.25;5112364;28;19947;-89
2023/04/22 09:57:50;;;;;;;;;;;;;;;-141.59;100.00;61776.25;5109518;28;19928;-89
2023/04/22 10:00:18;;;;;;;;;;;;;;;-141.59;100.00;61776.25;5103687;28;19924;-87
2023/04/22 10:02:44;;;;;;;;;;;;;;;-141.59;100.00;61776.25;5106960;28;20024;-87
2023/04/22 10:05:12;;;;;;;;;;;;;;;-141.59;100.00;61776.25;5119484;27;19924;-88
2023/04/22 10:07:40;;;;;;;;;;;;;;;-141.59;100.00;61776.25;5114551;28;19923;-88
2023/04/22 10:10:08;;;;;;;;;;;;;;;-141.59;100.00;61776.25;5109911;28;20007;-88
2023/04/22 10:12:35;;;;;;;;;;;;;;;-141.59;100.00;61776.25;5110837;28;19928;-88
2023/04/22 10:15:02;;;;;;;;;;;;;;;-141.59;100.00;61776.25;5107984;28;19935;-88
2023/04/22 10:17:30;;;;;;;;;;;;;;;-141.59;100.00;61776.25;5107808;28;19999;-88
2023/04/22 10:19:58;;;;;;;;;;;;;;;-141.59;100.00;61776.25;5103867;28;19935;-88
2023/04/22 10:22:24;;;;;;;;;;;;;;;-141.59;100.00;61776.25;5098029;28;19999;-87
2023/04/22 10:24:54;;;;;;;;;;;;;;;-141.59;100.00;61776.25;5111376;28;19935;-87
2023/04/22 10:27:22;;;;;;;;;;;;;;;-141.59;100.00;61776.25;5113969;28;19932;-87
2023/04/22 10:29:48;;;;;;;;;;;;;;;-141.59;100.00;61776.25;5108715;28;19924;-86
2023/04/22 10:32:25;;;;;;;;;;;;;;;-141.59;100.00;61776.25;5103254;28;19950;-87
2023/04/22 10:35:07;;;;;;;;;;;;;;;-141.59;100.00;61776.25;5110893;28;19939;-87
2023/04/22 10:37:34;;;;;;;;;;;;;;;-141.59;100.00;61776.25;5104139;28;20000;-87
2023/04/22 10:40:10;;;;;;;;;;;;;;;-141.59;100.00;61776.25;5107802;28;19984;-87
2023/04/22 10:42:39;;;;;;;;;;;;;;;-141.59;100.00;61776.25;5104028;28;19924;-87
2023/04/22 10:45:06;;;;;;;;;;;;;;;-141.59;100.00;61776.25;5107499;28;19932;-88
2023/04/22 10:47:34;;;;;;;;;;;;;;;-141.59;100.00;61776.25;5106741;28;19970;-87
2023/04/22 10:50:11;;;;;;;;;;;;;;;-141.59;100.00;61776.25;5109488;28;19931;-86
2023/04/22 10:52:39;;;;;;;;;;;;;;;-141.59;100.00;61776.25;5106388;28;19924;-87
2023/04/22 10:55:06;;;;;;;;;;;;;;;-141.59;100.00;61776.25;5105002;28;19931;-85
2023/04/22 10:57:40;;;;;;;;;;;;;;;-141.59;100.00;61776.25;5109599;28;19924;-86
2023/04/22 11:00:18;;;;;;;;;;;;;;;-141.59;100.00;61776.25;5107485;28;19936;-86
2023/04/22 11:02:45;;;;;;;;;;;;;;;-141.59;100.00;61776.25;5110735;28;20124;-86
2023/04/22 11:05:19;;;;;;;;;;;;;;;-141.59;100.00;61776.25;5109164;28;19928;-86
2023/04/22 11:07:46;;;;;;;;;;;;;;;-141.59;100.00;61776.25;5109964;28;19976;-86
2023/04/22 11:10:30;;;;;;;;;;;;;;;-141.59;100.00;61776.25;5103047;28;19924;-86
2023/04/22 11:12:58;;;;;;;;;;;;;;;-141.59;100.00;61776.25;5096060;27;19932;-84
2023/04/22 11:15:25;;;;;;;;;;;;;;;-141.59;100.00;61776.25;5107840;28;19928;-86
2023/04/22 11:17:53;;;;;;;;;;;;;;;-141.59;100.00;61776.25;5111758;28;19939;-87
2023/04/22 11:20:20;;;;;;;;;;;;;;;-141.59;100.00;61776.25;5106357;28;19932;-86
2023/04/22 11:22:49;;;;;;;;;;;;;;;-141.59;100.00;61776.25;5109450;28;19935;-85
2023/04/22 11:25:15;;;;;;;;;;;;;;;-141.59;100.00;61776.25;5108674;28;19923;-86
2023/04/22 11:27:43;;;;;;;;;;;;;;;-141.59;100.00;61776.25;5111420;28;19946;-86
2023/04/22 11:30:13;;;;;;;;;;;;;;;-141.59;100.00;61776.25;5107594;28;20012;-87
2023/04/22 11:32:41;;;;;;;;;;;;;;;-141.59;100.00;61776.25;5109968;28;19931;-86
2023/04/22 11:35:08;;;;;;;;;;;;;;;-141.59;100.00;61776.25;5112262;28;19924;-85
2023/04/22 11:37:40;;;;;;;;;;;;;;;-141.59;100.00;61776.25;5124144;27;19977;-86
2023/04/22 11:40:08;;;;;;;;;;;;;;;-141.59;100.00;61776.25;5100085;28;19956;-86
2023/04/22 11:42:35;;;;;;;;;;;;;;;-141.59;100.00;61776.25;5109562;28;19931;-86
2023/04/22 11:45:02;;;;;;;;;;;;;;;-141.59;100.00;61776.25;5108693;28;19924;-85
2023/04/22 11:47:31;;;;;;;;;;;;;;;-141.59;100.00;61776.25;5108871;28;19943;-85
2023/04/22 11:49:59;;;;;;;;;;;;;;;-141.59;100.00;61776.25;5106940;28;19990;-85
2023/04/22 11:52:26;;;;;;;;;;;;;;;-141.59;100.00;61776.25;5107757;28;19944;-85
2023/04/22 11:54:53;;;;;;;;;;;;;;;-141.59;100.00;61776.25;5107328;28;19931;-85
2023/04/22 11:57:20;;;;;;;;;;;;;;;-141.59;100.00;61776.25;5112192;28;19924;-85
2023/04/22 11:59:57;;;;;;;;;;;;;;;-141.59;100.00;61776.25;5111861;28;20034;-85
2023/04/22 12:02:24;;;;;;;;;;;;;;;-141.59;100.00;61776.25;5106906;28;19923;-85
2023/04/22 12:04:52;;;;;;;;;;;;;;;-141.59;100.00;61776.25;5109120;28;19927;-85
2023/04/22 12:07:19;;;;;;;;;;;;;;;-141.59;100.00;61776.25;5110534;28;19923;-85
2023/04/22 12:09:48;;;;;;;;;;;;;;;-141.59;100.00;61776.25;5111337;28;20230;-85
2023/04/22 12:12:15;;;;;;;;;;;;;;;-141.59;100.00;61776.25;5111580;28;19924;-86
2023/04/22 12:14:45;;;;;;;;;;;;;;;-141.59;100.00;61776.25;5107099;28;19924;-86
2023/04/22 12:17:12;;;;;;;;;;;;;;;-141.59;100.00;61776.25;5110265;28;19928;-86
2023/04/22 12:19:38;;;;;;;;;;;;;;;-141.59;100.00;61776.25;5111713;28;19924;-85
2023/04/22 12:22:06;;;;;;;;;;;;;;;-141.59;100.00;61776.25;5110840;28;19971;-86
2023/04/22 12:24:33;;;;;;;;;;;;;;;-141.59;100.00;61776.25;5104332;28;19954;-86